Time,TemperatureF,DewpointF,PressureIn,WindDirection,WindDirectionDegrees,WindSpeedMPH,WindSpeedGustMPH,Humidity,HourlyPrecipIn,Conditions,Clouds,dailyrainin,SoftwareType,DateUTC
2013-09-23 00:03:00,55.9,46.3,27.88,West,270,0.0,0.0,70,-99.99,,,-99.99,WSDL version 420,2013-09-23 04:03:00,
2013-09-23 00:08:00,55.8,45.8,27.88,West,270,0.0,0.0,69,0.00,,,0.00,WSDL version 420,2013-09-23 04:08:00,
2013-09-23 00:13:00,55.6,45.6,27.88,West,270,0.0,0.0,69,0.00,,,0.00,WSDL version 420,2013-09-23 04:13:00,
2013-09-23 00:18:00,55.3,45.5,27.88,West,270,0.0,0.0,70,0.00,,,0.00,WSDL version 420,2013-09-23 04:18:00,
2013-09-23 00:23:00,55.4,45.7,27.88,West,270,0.0,0.0,70,-99.99,,,-99.99,WSDL version 420,2013-09-23 04:23:00,
2013-09-23 00:28:00,55.3,45.7,27.88,West,270,0.0,0.0,70,0.00,,,0.00,WSDL version 420,2013-09-23 04:28:00,
2013-09-23 00:33:00,55.2,45.6,27.88,West,270,0.0,0.0,70,0.00,,,0.00,WSDL version 420,2013-09-23 04:33:00,
2013-09-23 00:38:00,55.0,45.5,27.88,West,270,0.0,0.0,70,0.00,,,0.00,WSDL version 420,2013-09-23 04:38:00,
2013-09-23 00:43:00,54.7,45.1,27.88,West,270,0.0,0.0,70,0.00,,,0.00,WSDL version 420,2013-09-23 04:43:00,
2013-09-23 00:48:00,54.7,45.4,27.88,West,270,0.0,0.0,71,0.00,,,0.00,WSDL version 420,2013-09-23 04:48:00,
2013-09-23 00:53:00,54.8,45.6,27.88,West,270,0.0,0.0,71,0.00,,,0.00,WSDL version 420,2013-09-23 04:53:00,
2013-09-23 00:58:00,54.8,45.6,27.88,West,270,0.0,0.0,71,0.00,,,0.00,WSDL version 420,2013-09-23 04:58:00,
2013-09-23 01:03:00,54.6,45.4,27.88,West,270,0.0,0.0,71,0.00,,,0.00,WSDL version 420,2013-09-23 05:03:00,
2013-09-23 01:08:00,54.5,45.3,27.88,West,270,0.0,0.0,71,0.00,,,0.00,WSDL version 420,2013-09-23 05:08:00,
2013-09-23 01:13:00,54.5,45.3,27.88,West,270,0.0,0.0,71,0.00,,,0.00,WSDL version 420,2013-09-23 05:13:00,
2013-09-23 01:18:00,54.5,45.3,27.88,West,270,0.0,0.0,71,0.00,,,0.00,WSDL version 420,2013-09-23 05:18:00,
2013-09-23 01:23:00,54.3,45.1,27.88,West,270,0.0,0.0,71,0.00,,,0.00,WSDL version 420,2013-09-23 05:23:00,
2013-09-23 01:28:00,54.1,45.0,27.88,North,-999,-999.0,-999.0,71,0.00,,,0.00,WSDL version 420,2013-09-23 05:28:00,
2013-09-23 01:33:00,53.7,44.6,27.88,West,270,0.0,0.0,71,0.00,,,0.00,WSDL version 420,2013-09-23 05:33:00,
2013-09-23 01:38:00,53.5,44.3,27.88,West,270,0.0,0.0,71,0.00,,,0.00,WSDL version 420,2013-09-23 05:38:00,
2013-09-23 01:43:00,53.4,44.3,27.88,West,270,0.0,0.0,71,0.00,,,0.00,WSDL version 420,2013-09-23 05:43:00,
2013-09-23 01:48:00,53.4,44.2,27.88,West,270,0.0,0.0,71,0.00,,,0.00,WSDL version 420,2013-09-23 05:48:00,
2013-09-23 01:53:00,53.4,44.6,27.88,North,-999,-999.0,-999.0,72,0.00,,,0.00,WSDL version 420,2013-09-23 05:53:00,
2013-09-23 01:58:00,53.4,44.6,27.88,North,-999,-999.0,-999.0,72,0.00,,,0.00,WSDL version 420,2013-09-23 05:58:00,
2013-09-23 02:03:00,53.1,44.3,27.88,North,-999,-999.0,-999.0,72,0.00,,,0.00,WSDL version 420,2013-09-23 06:03:00,
2013-09-23 02:08:00,53.1,44.3,27.88,North,-999,-999.0,-999.0,72,0.00,,,0.00,WSDL version 420,2013-09-23 06:08:00,
2013-09-23 02:13:00,53.1,44.3,27.88,West,270,0.0,0.0,72,0.00,,,0.00,WSDL version 420,2013-09-23 06:13:00,
2013-09-23 02:18:00,53.1,44.3,27.88,West,270,0.0,0.0,72,0.00,,,0.00,WSDL version 420,2013-09-23 06:18:00,
2013-09-23 02:23:00,53.0,44.2,27.88,West,270,0.0,0.0,72,0.00,,,0.00,WSDL version 420,2013-09-23 06:23:00,
2013-09-23 02:28:00,52.8,44.0,27.88,West,270,0.0,0.0,72,0.00,,,0.00,WSDL version 420,2013-09-23 06:28:00,
2013-09-23 02:33:00,52.8,44.1,27.88,West,270,0.0,0.0,72,0.00,,,0.00,WSDL version 420,2013-09-23 06:33:00,
2013-09-23 02:38:00,52.9,44.1,27.88,West,270,0.0,0.0,72,0.00,,,0.00,WSDL version 420,2013-09-23 06:38:00,
2013-09-23 02:43:00,52.7,43.9,27.88,West,270,0.0,0.0,72,0.00,,,0.00,WSDL version 420,2013-09-23 06:43:00,
2013-09-23 02:48:00,52.5,43.8,27.88,West,270,0.0,0.0,72,0.00,,,0.00,WSDL version 420,2013-09-23 06:48:00,
2013-09-23 02:53:00,52.4,43.7,27.88,West,270,0.0,0.0,72,0.00,,,0.00,WSDL version 420,2013-09-23 06:53:00,
2013-09-23 02:58:00,52.5,43.7,27.88,West,270,0.0,0.0,72,0.00,,,0.00,WSDL version 420,2013-09-23 06:58:00,
2013-09-23 03:03:00,52.4,43.7,27.88,West,270,0.0,0.0,72,0.00,,,0.00,WSDL version 420,2013-09-23 07:03:00,
2013-09-23 03:08:00,52.3,43.6,27.88,West,270,0.0,0.0,72,0.00,,,0.00,WSDL version 420,2013-09-23 07:08:00,
2013-09-23 03:13:00,52.0,43.3,27.88,West,270,0.0,0.0,72,0.00,,,0.00,WSDL version 420,2013-09-23 07:13:00,
2013-09-23 03:18:00,51.7,43.0,27.88,West,270,0.0,0.0,72,0.00,,,0.00,WSDL version 420,2013-09-23 07:18:00,
2013-09-23 03:23:00,51.8,43.1,27.88,West,270,0.0,0.0,72,0.00,,,0.00,WSDL version 420,2013-09-23 07:23:00,
2013-09-23 03:28:00,51.9,43.1,27.88,West,270,0.0,0.0,72,0.00,,,0.00,WSDL version 420,2013-09-23 07:28:00,
2013-09-23 03:33:00,51.8,43.2,27.88,West,270,0.0,0.0,73,0.00,,,0.00,WSDL version 420,2013-09-23 07:33:00,
2013-09-23 03:38:00,51.7,43.2,27.88,West,270,0.0,0.0,73,0.00,,,0.00,WSDL version 420,2013-09-23 07:38:00,
2013-09-23 03:43:00,51.6,43.0,27.88,West,270,0.0,0.0,72,0.00,,,0.00,WSDL version 420,2013-09-23 07:43:00,
2013-09-23 03:48:00,51.4,42.9,27.88,West,270,0.0,0.0,73,0.00,,,0.00,WSDL version 420,2013-09-23 07:48:00,
2013-09-23 03:53:00,51.3,42.9,27.88,West,270,0.0,0.0,73,0.00,,,0.00,WSDL version 420,2013-09-23 07:53:00,
2013-09-23 03:58:00,51.1,42.7,27.88,West,270,0.0,0.0,73,0.00,,,0.00,WSDL version 420,2013-09-23 07:58:00,
2013-09-23 04:03:00,51.1,42.7,27.88,West,270,0.0,0.0,73,0.00,,,0.00,WSDL version 420,2013-09-23 08:03:00,
2013-09-23 04:08:00,51.1,42.7,27.88,West,270,0.0,0.0,73,0.00,,,0.00,WSDL version 420,2013-09-23 08:08:00,
2013-09-23 04:13:00,50.7,42.3,27.88,West,270,0.0,0.0,73,0.00,,,0.00,WSDL version 420,2013-09-23 08:13:00,
2013-09-23 04:18:00,50.7,42.4,27.88,West,270,0.0,0.0,73,0.00,,,0.00,WSDL version 420,2013-09-23 08:18:00,
2013-09-23 04:23:00,50.9,42.7,27.88,West,270,0.0,0.0,74,0.00,,,0.00,WSDL version 420,2013-09-23 08:23:00,
2013-09-23 04:28:00,51.1,43.1,27.88,West,270,0.0,0.0,74,0.00,,,0.00,WSDL version 420,2013-09-23 08:28:00,
2013-09-23 04:33:00,51.1,43.2,27.88,West,270,0.0,0.0,74,0.00,,,0.00,WSDL version 420,2013-09-23 08:33:00,
2013-09-23 04:38:00,51.3,43.3,27.88,West,270,0.0,0.0,74,0.00,,,0.00,WSDL version 420,2013-09-23 08:38:00,
2013-09-23 04:43:00,51.2,43.2,27.88,West,270,0.0,0.0,74,0.00,,,0.00,WSDL version 420,2013-09-23 08:43:00,
2013-09-23 04:48:00,51.1,43.3,27.88,West,270,0.0,0.0,75,0.00,,,0.00,WSDL version 420,2013-09-23 08:48:00,
2013-09-23 04:53:00,51.0,43.2,27.88,West,270,0.0,0.0,75,0.00,,,0.00,WSDL version 420,2013-09-23 08:53:00,
2013-09-23 04:58:00,51.0,43.3,27.88,West,270,0.0,0.0,75,0.00,,,0.00,WSDL version 420,2013-09-23 08:58:00,
2013-09-23 05:03:00,51.0,43.3,27.88,West,270,0.0,0.0,75,0.00,,,0.00,WSDL version 420,2013-09-23 09:03:00,
2013-09-23 05:08:00,51.1,43.4,27.91,West,270,0.0,0.0,75,0.00,,,0.00,WSDL version 420,2013-09-23 09:08:00,
2013-09-23 05:13:00,51.1,43.4,27.91,West,270,0.0,0.0,75,0.00,,,0.00,WSDL version 420,2013-09-23 09:13:00,
2013-09-23 05:18:00,51.3,43.6,27.91,West,270,0.0,0.0,75,0.00,,,0.00,WSDL version 420,2013-09-23 09:18:00,
2013-09-23 05:23:00,51.2,43.5,27.91,West,270,0.0,0.0,75,0.00,,,0.00,WSDL version 420,2013-09-23 09:23:00,
2013-09-23 05:28:00,51.0,43.4,27.91,West,270,0.0,0.0,75,0.00,,,0.00,WSDL version 420,2013-09-23 09:28:00,
2013-09-23 05:33:00,50.8,43.2,27.91,West,270,0.0,0.0,75,0.00,,,0.00,WSDL version 420,2013-09-23 09:33:00,
2013-09-23 05:38:00,50.7,43.1,27.91,West,270,0.0,0.0,75,0.00,,,0.00,WSDL version 420,2013-09-23 09:38:00,
2013-09-23 05:43:00,50.7,43.1,27.91,West,270,0.0,0.0,75,0.00,,,0.00,WSDL version 420,2013-09-23 09:43:00,
2013-09-23 05:48:00,50.6,43.0,27.91,West,270,0.0,0.0,75,0.00,,,0.00,WSDL version 420,2013-09-23 09:48:00,
2013-09-23 05:53:00,50.6,43.0,27.91,West,270,0.0,0.0,75,0.00,,,0.00,WSDL version 420,2013-09-23 09:53:00,
2013-09-23 05:58:00,50.5,42.9,27.91,West,270,0.0,0.0,75,0.00,,,0.00,WSDL version 420,2013-09-23 09:58:00,
2013-09-23 06:03:00,50.4,42.7,27.91,West,270,0.0,0.0,75,0.00,,,0.00,WSDL version 420,2013-09-23 10:03:00,
2013-09-23 06:08:00,50.4,42.7,27.91,West,270,0.0,0.0,75,0.00,,,0.00,WSDL version 420,2013-09-23 10:08:00,
2013-09-23 06:13:00,50.3,42.7,27.91,West,270,0.0,0.0,75,0.00,,,0.00,WSDL version 420,2013-09-23 10:13:00,
2013-09-23 06:18:00,50.2,42.6,27.91,West,270,0.0,0.0,75,0.00,,,0.00,WSDL version 420,2013-09-23 10:18:00,
2013-09-23 06:23:00,50.4,42.7,27.91,West,270,0.0,0.0,75,0.00,,,0.00,WSDL version 420,2013-09-23 10:23:00,
2013-09-23 06:28:00,50.3,42.7,27.91,North,0,0.0,0.0,75,0.00,,,0.00,WSDL version 420,2013-09-23 10:28:00,
2013-09-23 06:33:00,50.2,42.6,27.91,West,270,0.0,0.0,75,0.00,,,0.00,WSDL version 420,2013-09-23 10:33:00,
2013-09-23 06:38:00,50.0,42.4,27.91,West,270,0.0,0.0,75,0.00,,,0.00,WSDL version 420,2013-09-23 10:38:00,
2013-09-23 06:43:00,50.0,42.4,27.91,West,270,0.0,0.0,75,0.00,,,0.00,WSDL version 420,2013-09-23 10:43:00,
2013-09-23 06:48:00,49.9,42.3,27.91,West,270,0.0,0.0,75,0.00,,,0.00,WSDL version 420,2013-09-23 10:48:00,
2013-09-23 06:53:00,49.6,42.1,27.91,West,270,0.0,0.0,75,0.00,,,0.00,WSDL version 420,2013-09-23 10:53:00,
2013-09-23 06:58:00,49.6,42.0,27.91,West,270,0.0,0.0,75,0.00,,,0.00,WSDL version 420,2013-09-23 10:58:00,
2013-09-23 07:03:00,49.8,42.2,27.91,West,270,0.0,0.0,75,0.00,,,0.00,WSDL version 420,2013-09-23 11:03:00,
2013-09-23 07:08:00,49.8,42.3,27.91,West,270,0.0,0.0,76,0.00,,,0.00,WSDL version 420,2013-09-23 11:08:00,
2013-09-23 07:13:00,49.8,42.6,27.91,West,270,0.0,0.0,76,0.00,,,0.00,WSDL version 420,2013-09-23 11:13:00,
2013-09-23 07:18:00,49.8,42.6,27.91,West,270,0.0,0.0,76,0.00,,,0.00,WSDL version 420,2013-09-23 11:18:00,
2013-09-23 07:23:00,49.8,42.6,27.91,West,270,0.0,0.0,76,0.00,,,0.00,WSDL version 420,2013-09-23 11:23:00,
2013-09-23 07:28:00,49.7,42.5,27.91,West,270,0.0,0.0,76,0.00,,,0.00,WSDL version 420,2013-09-23 11:28:00,
2013-09-23 07:33:00,49.6,42.4,27.91,West,270,0.0,0.0,76,0.00,,,0.00,WSDL version 420,2013-09-23 11:33:00,
2013-09-23 07:38:00,49.5,41.9,27.91,West,270,0.0,0.0,75,0.00,,,0.00,WSDL version 420,2013-09-23 11:38:00,
2013-09-23 07:43:00,49.3,41.8,27.91,West,270,0.0,0.0,75,0.00,,,0.00,WSDL version 420,2013-09-23 11:43:00,
2013-09-23 07:48:00,49.5,42.0,27.91,West,270,0.0,0.0,76,-99.99,,,-99.99,WSDL version 420,2013-09-23 11:48:00,
2013-09-23 07:53:00,49.6,42.3,27.94,West,270,0.0,0.0,76,0.00,,,0.00,WSDL version 420,2013-09-23 11:53:00,
2013-09-23 07:58:00,49.8,42.6,27.94,West,270,0.0,0.0,76,0.00,,,0.00,WSDL version 420,2013-09-23 11:58:00,
2013-09-23 08:03:00,49.8,42.6,27.94,West,270,0.0,0.0,76,0.00,,,0.00,WSDL version 420,2013-09-23 12:03:00,
2013-09-23 08:08:00,49.9,42.7,27.94,West,270,0.0,0.0,76,0.00,,,0.00,WSDL version 420,2013-09-23 12:08:00,
2013-09-23 08:13:00,50.0,42.7,27.94,West,270,0.0,0.0,76,0.00,,,0.00,WSDL version 420,2013-09-23 12:13:00,
2013-09-23 08:18:00,50.0,42.7,27.94,West,270,0.0,0.0,76,0.00,,,0.00,WSDL version 420,2013-09-23 12:18:00,
2013-09-23 08:23:00,50.2,43.1,27.94,West,270,0.0,0.0,77,0.00,,,0.00,WSDL version 420,2013-09-23 12:23:00,
2013-09-23 08:28:00,50.4,43.4,27.94,West,270,0.0,0.0,77,0.00,,,0.00,WSDL version 420,2013-09-23 12:28:00,
2013-09-23 08:33:00,50.4,43.6,27.94,West,270,0.0,0.0,78,0.00,,,0.00,WSDL version 420,2013-09-23 12:33:00,
2013-09-23 08:38:00,50.7,44.1,27.94,West,270,0.0,0.0,78,0.00,,,0.00,WSDL version 420,2013-09-23 12:38:00,
2013-09-23 08:43:00,50.9,44.3,27.94,West,270,0.0,0.0,78,0.00,,,0.00,WSDL version 420,2013-09-23 12:43:00,
2013-09-23 08:48:00,51.1,44.6,27.94,West,270,0.0,0.0,79,0.00,,,0.00,WSDL version 420,2013-09-23 12:48:00,
2013-09-23 08:53:00,51.4,45.1,27.94,West,270,0.0,0.0,79,0.00,,,0.00,WSDL version 420,2013-09-23 12:53:00,
2013-09-23 08:58:00,51.7,45.4,27.94,West,270,0.0,0.0,79,0.00,,,0.00,WSDL version 420,2013-09-23 12:58:00,
2013-09-23 09:03:00,51.9,45.6,27.94,West,270,0.0,0.0,79,0.00,,,0.00,WSDL version 420,2013-09-23 13:03:00,
2013-09-23 09:08:00,52.3,46.2,27.94,West,270,0.0,0.0,80,0.00,,,0.00,WSDL version 420,2013-09-23 13:08:00,
2013-09-23 09:13:00,52.6,46.6,27.94,West,270,0.0,0.0,80,-99.99,,,-99.99,WSDL version 420,2013-09-23 13:13:00,
2013-09-23 09:18:00,53.0,47.0,27.94,West,270,0.0,0.0,80,0.00,,,0.00,WSDL version 420,2013-09-23 13:18:00,
2013-09-23 09:23:00,53.2,47.2,27.94,WSW,248,0.0,0.0,80,0.00,,,0.00,WSDL version 420,2013-09-23 13:23:00,
2013-09-23 09:28:00,53.7,47.3,27.94,WSW,248,0.0,0.0,79,0.00,,,0.00,WSDL version 420,2013-09-23 13:28:00,
2013-09-23 09:33:00,54.0,47.6,27.94,WSW,248,0.0,0.0,79,0.00,,,0.00,WSDL version 420,2013-09-23 13:33:00,
2013-09-23 09:38:00,54.6,48.2,27.94,West,263,0.0,0.0,79,-99.99,,,-99.99,WSDL version 420,2013-09-23 13:38:00,
2013-09-23 09:43:00,55.2,48.5,27.94,East,90,0.6,1.1,78,0.00,,,0.00,WSDL version 420,2013-09-23 13:43:00,
2013-09-23 09:48:00,55.5,48.4,27.94,North,360,0.0,1.1,77,0.00,,,0.00,WSDL version 420,2013-09-23 13:48:00,
2013-09-23 09:53:00,55.7,48.6,27.94,NNW,338,0.0,1.1,77,0.00,,,0.00,WSDL version 420,2013-09-23 13:53:00,
2013-09-23 09:58:00,56.1,48.7,27.94,NNW,338,0.0,0.0,76,-99.99,,,-99.99,WSDL version 420,2013-09-23 13:58:00,
2013-09-23 10:03:00,56.6,49.1,27.94,West,270,0.0,0.0,76,0.00,,,0.00,WSDL version 420,2013-09-23 14:03:00,
2013-09-23 10:08:00,56.8,49.4,27.94,West,270,0.0,0.0,76,0.00,,,0.00,WSDL version 420,2013-09-23 14:08:00,
2013-09-23 10:13:00,57.3,49.6,27.94,ESE,113,0.0,0.0,75,0.00,,,0.00,WSDL version 420,2013-09-23 14:13:00,
2013-09-23 10:18:00,57.4,49.5,27.94,South,180,0.0,0.0,75,0.00,,,0.00,WSDL version 420,2013-09-23 14:18:00,
2013-09-23 10:23:00,57.8,49.7,27.94,SE,128,0.0,0.0,74,0.00,,,0.00,WSDL version 420,2013-09-23 14:23:00,
2013-09-23 10:28:00,58.5,50.2,27.94,WNW,293,0.0,0.0,74,0.00,,,0.00,WSDL version 420,2013-09-23 14:28:00,
2013-09-23 10:33:00,58.9,50.7,27.94,NNW,338,0.0,0.0,74,0.00,,,0.00,WSDL version 420,2013-09-23 14:33:00,
2013-09-23 10:38:00,59.2,50.6,27.94,SE,143,0.0,0.9,73,0.00,,,0.00,WSDL version 420,2013-09-23 14:38:00,
2013-09-23 10:43:00,59.5,50.7,27.94,ENE,68,0.0,0.9,72,-99.99,,,-99.99,WSDL version 420,2013-09-23 14:43:00,
2013-09-23 10:48:00,59.9,50.9,27.94,South,180,0.9,0.9,72,-99.99,,,-99.99,WSDL version 420,2013-09-23 14:48:00,
2013-09-23 10:53:00,60.3,51.2,27.94,WSW,248,0.0,0.9,72,-99.99,,,-99.99,WSDL version 420,2013-09-23 14:53:00,
2013-09-23 10:58:00,60.5,51.1,27.94,NNW,338,0.0,0.0,71,-99.99,,,-99.99,WSDL version 420,2013-09-23 14:58:00,
2013-09-23 11:03:00,60.7,51.1,27.94,NE,38,0.0,0.0,70,-99.99,,,-99.99,WSDL version 420,2013-09-23 15:03:00,
2013-09-23 11:08:00,61.2,51.3,27.94,South,188,0.0,0.9,70,-99.99,,,-99.99,WSDL version 420,2013-09-23 15:08:00,
2013-09-23 11:13:00,61.5,51.7,27.94,NNW,338,0.0,0.9,70,-99.99,,,-99.99,WSDL version 420,2013-09-23 15:13:00,
2013-09-23 11:18:00,61.8,51.5,27.94,NNW,338,0.0,0.0,69,-99.99,,,-99.99,WSDL version 420,2013-09-23 15:18:00,
2013-09-23 11:23:00,62.3,51.7,27.94,NNW,338,0.0,0.0,68,-99.99,,,-99.99,WSDL version 420,2013-09-23 15:23:00,
2013-09-23 11:28:00,62.9,52.1,27.94,NNE,28,0.0,0.0,67,-99.99,,,-99.99,WSDL version 420,2013-09-23 15:28:00,
2013-09-23 11:33:00,63.2,52.1,27.94,West,270,0.0,0.0,67,0.00,,,0.00,WSDL version 420,2013-09-23 15:33:00,
2013-09-23 11:38:00,63.7,52.1,27.94,WSW,255,0.0,0.0,66,-99.99,,,-99.99,WSDL version 420,2013-09-23 15:38:00,
2013-09-23 11:43:00,64.2,52.6,27.94,SW,236,0.0,0.0,66,-99.99,,,-99.99,WSDL version 420,2013-09-23 15:43:00,
2013-09-23 11:48:00,64.5,52.5,27.94,NNW,338,0.0,0.0,64,-99.99,,,-99.99,WSDL version 420,2013-09-23 15:48:00,
2013-09-23 11:53:00,65.4,53.2,27.94,SSW,203,1.0,1.1,64,-99.99,,,-99.99,WSDL version 420,2013-09-23 15:53:00,
2013-09-23 11:58:00,65.7,53.2,27.94,SW,225,0.3,1.1,64,-99.99,,,-99.99,WSDL version 420,2013-09-23 15:58:00,
2013-09-23 12:03:00,65.7,52.6,27.94,WNW,293,1.3,2.0,62,-99.99,,,-99.99,WSDL version 420,2013-09-23 16:03:00,
2013-09-23 12:08:00,65.8,52.6,27.94,WNW,300,2.2,2.5,62,-99.99,,,-99.99,WSDL version 420,2013-09-23 16:08:00,
2013-09-23 12:13:00,65.9,52.6,27.94,NW,304,0.8,2.5,62,-99.99,,,-99.99,WSDL version 420,2013-09-23 16:13:00,
2013-09-23 12:18:00,66.0,52.3,27.94,NNW,330,0.7,2.0,61,-99.99,,,-99.99,WSDL version 420,2013-09-23 16:18:00,
2013-09-23 12:23:00,66.4,52.5,27.94,WSW,248,0.4,2.0,61,-99.99,,,-99.99,WSDL version 420,2013-09-23 16:23:00,
2013-09-23 12:28:00,67.0,52.9,27.94,SW,225,0.9,1.6,60,-99.99,,,-99.99,WSDL version 420,2013-09-23 16:28:00,
2013-09-23 12:33:00,67.3,52.8,27.94,West,278,0.7,2.2,60,-99.99,,,-99.99,WSDL version 420,2013-09-23 16:33:00,
2013-09-23 12:38:00,67.2,52.5,27.94,North,354,0.7,2.2,59,-99.99,,,-99.99,WSDL version 420,2013-09-23 16:38:00,
2013-09-23 12:43:00,67.0,52.2,27.94,SSE,150,1.6,2.5,59,-99.99,,,-99.99,WSDL version 420,2013-09-23 16:43:00,
2013-09-23 12:48:00,67.4,52.6,27.94,WNW,285,1.9,2.9,59,-99.99,,,-99.99,WSDL version 420,2013-09-23 16:48:00,
2013-09-23 12:53:00,68.0,52.8,27.94,SSW,203,0.4,2.9,58,-99.99,,,-99.99,WSDL version 420,2013-09-23 16:53:00,
2013-09-23 12:58:00,68.4,52.8,27.94,WNW,293,0.6,2.9,57,-99.99,,,-99.99,WSDL version 420,2013-09-23 16:58:00,
2013-09-23 13:03:00,68.0,52.4,27.94,NW,315,0.4,1.6,58,-99.99,,,-99.99,WSDL version 420,2013-09-23 17:03:00,
2013-09-23 13:08:00,67.8,52.2,27.94,North,6,2.2,2.5,57,-99.99,,,-99.99,WSDL version 420,2013-09-23 17:08:00,
2013-09-23 13:13:00,68.0,52.5,27.94,SSW,210,1.7,2.5,57,-99.99,,,-99.99,WSDL version 420,2013-09-23 17:13:00,
2013-09-23 13:18:00,68.7,53.0,27.94,NNW,332,1.5,2.5,57,-99.99,,,-99.99,WSDL version 420,2013-09-23 17:18:00,
2013-09-23 13:23:00,68.2,51.9,27.94,NE,56,0.0,2.5,56,0.00,,,0.00,WSDL version 420,2013-09-23 17:23:00,
2013-09-23 13:28:00,68.0,52.2,27.94,WNW,285,2.4,2.7,57,0.00,,,0.00,WSDL version 420,2013-09-23 17:28:00,
2013-09-23 13:33:00,67.8,52.0,27.94,WNW,293,0.4,2.7,57,0.00,,,0.00,WSDL version 420,2013-09-23 17:33:00,
2013-09-23 13:38:00,67.9,52.3,27.94,WSW,248,1.7,2.7,57,0.00,,,0.00,WSDL version 420,2013-09-23 17:38:00,
2013-09-23 13:43:00,68.2,52.4,27.94,SW,218,2.1,2.9,57,0.00,,,0.00,WSDL version 420,2013-09-23 17:43:00,
2013-09-23 13:48:00,69.4,53.3,27.94,South,188,1.0,2.9,56,-99.99,,,-99.99,WSDL version 420,2013-09-23 17:48:00,
2013-09-23 13:53:00,70.0,53.3,27.94,SW,218,1.8,2.9,56,-99.99,,,-99.99,WSDL version 420,2013-09-23 17:53:00,
2013-09-23 13:58:00,70.6,53.7,27.94,West,278,1.7,3.6,55,-99.99,,,-99.99,WSDL version 420,2013-09-23 17:58:00,
2013-09-23 14:03:00,70.9,53.9,27.94,SSW,203,2.0,3.6,55,-99.99,,,-99.99,WSDL version 420,2013-09-23 18:03:00,
2013-09-23 14:08:00,70.8,53.1,27.94,SSW,203,0.7,2.5,53,-99.99,,,-99.99,WSDL version 420,2013-09-23 18:08:00,
2013-09-23 14:13:00,70.8,52.8,27.94,WNW,285,0.9,2.5,53,-99.99,,,-99.99,WSDL version 420,2013-09-23 18:13:00,
2013-09-23 14:18:00,71.2,53.0,27.94,WNW,285,2.5,2.9,53,-99.99,,,-99.99,WSDL version 420,2013-09-23 18:18:00,
2013-09-23 14:23:00,71.6,52.9,27.94,West,278,2.0,3.4,51,-99.99,,,-99.99,WSDL version 420,2013-09-23 18:23:00,
2013-09-23 14:28:00,71.7,52.4,27.94,WNW,293,2.2,3.6,50,-99.99,,,-99.99,WSDL version 420,2013-09-23 18:28:00,
2013-09-23 14:33:00,71.8,52.2,27.94,East,83,0.9,3.6,50,-99.99,,,-99.99,WSDL version 420,2013-09-23 18:33:00,
2013-09-23 14:38:00,72.4,53.0,27.91,SW,231,1.8,2.5,51,-99.99,,,-99.99,WSDL version 420,2013-09-23 18:38:00,
2013-09-23 14:43:00,72.3,52.4,27.91,West,270,1.4,2.9,49,-99.99,,,-99.99,WSDL version 420,2013-09-23 18:43:00,
2013-09-23 14:48:00,72.4,51.9,27.91,SW,225,0.7,2.9,48,-99.99,,,-99.99,WSDL version 420,2013-09-23 18:48:00,
2013-09-23 14:53:00,72.8,52.0,27.91,South,180,1.5,2.9,48,-99.99,,,-99.99,WSDL version 420,2013-09-23 18:53:00,
2013-09-23 14:58:00,73.1,52.5,27.91,WNW,285,2.6,3.1,49,-99.99,,,-99.99,WSDL version 420,2013-09-23 18:58:00,
2013-09-23 15:03:00,73.1,51.7,27.91,SW,233,1.8,3.1,47,0.00,,,0.00,WSDL version 420,2013-09-23 19:03:00,
2013-09-23 15:08:00,72.5,50.6,27.91,North,349,0.7,3.4,46,0.00,,,0.00,WSDL version 420,2013-09-23 19:08:00,
2013-09-23 15:13:00,72.6,50.2,27.91,NNW,330,0.3,3.4,45,0.00,,,0.00,WSDL version 420,2013-09-23 19:13:00,
2013-09-23 15:19:00,73.0,50.7,27.91,NW,315,0.0,2.2,45,-99.99,,,-99.99,WSDL version 420,2013-09-23 19:19:00,
2013-09-23 15:24:00,73.2,50.6,27.91,NW,326,1.8,2.5,44,0.00,,,0.00,WSDL version 420,2013-09-23 19:24:00,
2013-09-23 15:29:00,73.5,50.6,27.91,NW,326,1.6,2.7,44,0.00,,,0.00,WSDL version 420,2013-09-23 19:29:00,
2013-09-23 15:34:00,72.3,49.4,27.91,North,349,0.8,2.7,45,0.00,,,0.00,WSDL version 420,2013-09-23 19:34:00,
2013-09-23 15:39:00,72.5,50.0,27.91,WNW,287,1.3,2.5,45,0.00,,,0.00,WSDL version 420,2013-09-23 19:39:00,
2013-09-23 15:44:00,73.2,50.9,27.91,SSE,165,1.7,2.9,46,-99.99,,,-99.99,WSDL version 420,2013-09-23 19:44:00,
2013-09-23 15:49:00,73.6,50.6,27.91,SSW,203,1.4,2.9,44,-99.99,,,-99.99,WSDL version 420,2013-09-23 19:49:00,
2013-09-23 15:54:00,73.8,51.0,27.91,South,188,1.8,3.1,45,0.00,,,0.00,WSDL version 420,2013-09-23 19:54:00,
2013-09-23 15:59:00,74.1,51.2,27.91,West,278,2.2,3.1,44,-99.99,,,-99.99,WSDL version 420,2013-09-23 19:59:00,
2013-09-23 16:04:00,74.2,50.9,27.91,WSW,239,1.9,3.1,44,-99.99,,,-99.99,WSDL version 420,2013-09-23 20:04:00,
2013-09-23 16:09:00,74.2,50.5,27.91,North,11,2.5,4.0,43,-99.99,,,-99.99,WSDL version 420,2013-09-23 20:09:00,
2013-09-23 16:14:00,73.6,49.8,27.91,SSE,158,0.0,4.0,43,-99.99,,,-99.99,WSDL version 420,2013-09-23 20:14:00,
2013-09-23 16:19:00,73.9,50.2,27.91,WNW,285,1.5,2.2,44,0.00,,,0.00,WSDL version 420,2013-09-23 20:19:00,
2013-09-23 16:24:00,74.2,50.5,27.91,SE,143,2.5,2.7,43,0.00,,,0.00,WSDL version 420,2013-09-23 20:24:00,
2013-09-23 16:29:00,74.4,50.5,27.91,NE,38,1.5,3.6,43,0.00,,,0.00,WSDL version 420,2013-09-23 20:29:00,
2013-09-23 16:34:00,74.1,49.6,27.91,South,191,1.7,3.6,42,-99.99,,,-99.99,WSDL version 420,2013-09-23 20:34:00,
2013-09-23 16:39:00,74.4,49.9,27.91,West,270,1.0,2.5,42,0.00,,,0.00,WSDL version 420,2013-09-23 20:39:00,
2013-09-23 16:44:00,74.6,50.0,27.91,WNW,285,1.0,2.0,42,0.00,,,0.00,WSDL version 420,2013-09-23 20:44:00,
2013-09-23 16:49:00,74.5,50.0,27.91,NNW,338,2.3,2.7,42,0.00,,,0.00,WSDL version 420,2013-09-23 20:49:00,
2013-09-23 16:54:00,74.6,49.7,27.91,NW,315,1.1,2.7,41,0.00,,,0.00,WSDL version 420,2013-09-23 20:54:00,
2013-09-23 16:59:00,74.5,49.9,27.91,NE,53,1.3,1.6,42,0.00,,,0.00,WSDL version 420,2013-09-23 20:59:00,
2013-09-23 17:04:00,74.5,49.9,27.91,ESE,113,0.8,2.2,42,0.00,,,0.00,WSDL version 420,2013-09-23 21:04:00,
2013-09-23 17:09:00,74.2,49.5,27.91,WNW,293,2.2,2.2,42,0.00,,,0.00,WSDL version 420,2013-09-23 21:09:00,
2013-09-23 17:14:00,74.2,49.5,27.91,NNE,23,1.6,2.2,42,0.00,,,0.00,WSDL version 420,2013-09-23 21:14:00,
2013-09-23 17:19:00,74.2,49.4,27.91,South,180,3.1,3.1,42,-99.99,,,-99.99,WSDL version 420,2013-09-23 21:19:00,
2013-09-23 17:24:00,74.6,49.8,27.91,North,8,1.7,3.1,41,0.00,,,0.00,WSDL version 420,2013-09-23 21:24:00,
2013-09-23 17:29:00,74.6,49.3,27.91,ENE,60,0.3,2.5,41,0.00,,,0.00,WSDL version 420,2013-09-23 21:29:00,
2013-09-23 17:34:00,74.1,48.9,27.91,NW,315,1.7,2.9,41,-99.99,,,-99.99,WSDL version 420,2013-09-23 21:34:00,
2013-09-23 17:39:00,73.9,49.0,27.91,NW,323,1.3,2.9,41,0.00,,,0.00,WSDL version 420,2013-09-23 21:39:00,
2013-09-23 17:44:00,73.9,49.0,27.91,NNE,23,1.5,2.0,41,0.00,,,0.00,WSDL version 420,2013-09-23 21:44:00,
2013-09-23 17:49:00,73.8,48.6,27.91,East,83,0.4,2.0,41,-99.99,,,-99.99,WSDL version 420,2013-09-23 21:49:00,
2013-09-23 17:54:00,73.4,48.3,27.91,North,353,1.2,2.0,41,0.00,,,0.00,WSDL version 420,2013-09-23 21:54:00,
2013-09-23 17:59:00,72.6,48.2,27.91,ENE,68,0.0,2.7,42,0.00,,,0.00,WSDL version 420,2013-09-23 21:59:00,
2013-09-23 18:04:00,72.6,48.2,27.91,ENE,68,0.6,2.7,42,0.00,,,0.00,WSDL version 420,2013-09-23 22:04:00,
2013-09-23 18:09:00,72.6,48.2,27.91,South,188,0.0,2.2,42,0.00,,,0.00,WSDL version 420,2013-09-23 22:09:00,
2013-09-23 18:14:00,72.5,48.6,27.91,ESE,113,1.9,2.5,43,-99.99,,,-99.99,WSDL version 420,2013-09-23 22:14:00,
2013-09-23 18:19:00,72.5,48.3,27.91,NNE,23,1.0,2.5,43,0.00,,,0.00,WSDL version 420,2013-09-23 22:19:00,
2013-09-23 18:24:00,72.4,48.4,27.91,SSW,203,2.2,2.5,42,0.00,,,0.00,WSDL version 420,2013-09-23 22:24:00,
2013-09-23 18:29:00,72.3,48.0,27.91,NW,315,0.0,2.2,42,0.00,,,0.00,WSDL version 420,2013-09-23 22:29:00,
2013-09-23 18:34:00,72.0,48.1,27.91,NW,315,0.0,2.2,43,0.00,,,0.00,WSDL version 420,2013-09-23 22:34:00,
2013-09-23 18:39:00,71.4,48.2,27.91,NW,315,0.0,0.0,44,-99.99,,,-99.99,WSDL version 420,2013-09-23 22:39:00,
2013-09-23 18:44:00,71.1,48.1,27.91,WSW,255,0.0,0.0,44,0.00,,,0.00,WSDL version 420,2013-09-23 22:44:00,
2013-09-23 18:49:00,70.8,48.4,27.91,NE,53,0.7,1.3,45,0.00,,,0.00,WSDL version 420,2013-09-23 22:49:00,
2013-09-23 18:54:00,70.5,48.7,27.91,West,270,0.0,1.3,46,0.00,,,0.00,WSDL version 420,2013-09-23 22:54:00,
2013-09-23 18:59:00,70.1,48.9,27.91,West,270,0.0,0.0,47,0.00,,,0.00,WSDL version 420,2013-09-23 22:59:00,
2013-09-23 19:04:00,69.6,49.1,27.91,West,270,0.0,0.0,49,0.00,,,0.00,WSDL version 420,2013-09-23 23:04:00,
2013-09-23 19:09:00,69.2,49.4,27.91,West,270,0.0,0.0,50,0.00,,,0.00,WSDL version 420,2013-09-23 23:09:00,
2013-09-23 19:14:00,68.8,49.6,27.91,West,270,0.0,0.0,51,0.00,,,0.00,WSDL version 420,2013-09-23 23:14:00,
2013-09-23 19:19:00,68.2,49.6,27.91,West,270,0.0,0.0,52,0.00,,,0.00,WSDL version 420,2013-09-23 23:19:00,
2013-09-23 19:24:00,68.0,50.1,27.91,East,83,0.6,0.9,53,0.00,,,0.00,WSDL version 420,2013-09-23 23:24:00,
2013-09-23 19:29:00,67.8,50.4,27.91,East,90,0.4,0.9,54,0.00,,,0.00,WSDL version 420,2013-09-23 23:29:00,
2013-09-23 19:34:00,67.5,50.3,27.91,ENE,75,0.7,2.0,54,0.00,,,0.00,WSDL version 420,2013-09-23 23:34:00,
2013-09-23 19:39:00,67.2,50.5,27.91,ENE,73,0.0,2.0,55,-99.99,,,-99.99,WSDL version 420,2013-09-23 23:39:00,
2013-09-23 19:44:00,66.9,50.2,27.91,East,79,0.0,0.9,55,0.00,,,0.00,WSDL version 420,2013-09-23 23:44:00,
2013-09-23 19:49:00,66.6,50.3,27.91,ENE,68,0.0,0.9,56,0.00,,,0.00,WSDL version 420,2013-09-23 23:49:00,
2013-09-23 19:54:00,66.3,50.2,27.91,ENE,68,0.0,0.9,56,0.00,,,0.00,WSDL version 420,2013-09-23 23:54:00,
2013-09-23 19:59:00,66.2,50.5,27.91,ENE,68,0.0,0.0,57,0.00,,,0.00,WSDL version 420,2013-09-23 23:59:00,
2013-09-23 20:04:00,65.9,50.6,27.91,ENE,68,0.0,0.0,58,0.00,,,0.00,WSDL version 420,2013-09-24 00:04:00,
2013-09-23 20:09:00,65.6,50.4,27.91,ENE,68,0.0,0.0,58,0.00,,,0.00,WSDL version 420,2013-09-24 00:09:00,
2013-09-23 20:14:00,65.3,50.2,27.91,ENE,68,0.0,0.0,58,0.00,,,0.00,WSDL version 420,2013-09-24 00:14:00,
2013-09-23 20:19:00,64.7,50.1,27.91,ENE,68,0.0,0.0,59,0.00,,,0.00,WSDL version 420,2013-09-24 00:19:00,
2013-09-23 20:24:00,64.4,49.8,27.94,ENE,68,0.0,0.0,59,0.00,,,0.00,WSDL version 420,2013-09-24 00:24:00,
2013-09-23 20:29:00,64.1,50.0,27.94,ENE,68,0.0,0.0,60,0.00,,,0.00,WSDL version 420,2013-09-24 00:29:00,
2013-09-23 20:34:00,63.9,49.9,27.94,ENE,68,0.0,0.0,61,0.00,,,0.00,WSDL version 420,2013-09-24 00:34:00,
2013-09-23 20:39:00,63.7,50.0,27.94,ENE,68,0.0,0.0,61,0.00,,,0.00,WSDL version 420,2013-09-24 00:39:00,
2013-09-23 20:44:00,63.1,49.8,27.94,ENE,68,0.0,0.0,62,0.00,,,0.00,WSDL version 420,2013-09-24 00:44:00,
2013-09-23 20:49:00,63.3,50.1,27.94,ENE,68,0.0,0.0,62,0.00,,,0.00,WSDL version 420,2013-09-24 00:49:00,
2013-09-23 20:54:00,63.1,50.4,27.94,ENE,68,0.0,0.0,63,0.00,,,0.00,WSDL version 420,2013-09-24 00:54:00,
2013-09-23 20:59:00,62.9,50.1,27.94,ENE,68,0.0,0.0,63,0.00,,,0.00,WSDL version 420,2013-09-24 00:59:00,
2013-09-23 21:04:00,62.7,50.0,27.94,ENE,68,0.0,0.0,63,0.00,,,0.00,WSDL version 420,2013-09-24 01:04:00,
2013-09-23 21:09:00,62.7,50.0,27.94,ENE,68,0.0,0.0,63,0.00,,,0.00,WSDL version 420,2013-09-24 01:09:00,
2013-09-23 21:14:00,62.5,49.9,27.94,ENE,68,0.0,0.0,64,0.00,,,0.00,WSDL version 420,2013-09-24 01:14:00,
2013-09-23 21:19:00,62.4,50.1,27.94,ENE,68,0.0,0.0,64,0.00,,,0.00,WSDL version 420,2013-09-24 01:19:00,
2013-09-23 21:24:00,62.2,49.4,27.94,ENE,68,0.0,0.0,63,0.00,,,0.00,WSDL version 420,2013-09-24 01:24:00,
2013-09-23 21:29:00,61.8,49.1,27.94,ENE,68,0.0,0.0,63,0.00,,,0.00,WSDL version 420,2013-09-24 01:29:00,
2013-09-23 21:34:00,61.4,48.8,27.94,ENE,68,0.0,0.0,64,0.00,,,0.00,WSDL version 420,2013-09-24 01:34:00,
2013-09-23 21:39:00,61.3,49.1,27.94,NNE,23,0.0,0.0,64,0.00,,,0.00,WSDL version 420,2013-09-24 01:39:00,
2013-09-23 21:44:00,61.3,49.1,27.94,NNE,23,0.0,0.0,64,-99.99,,,-99.99,WSDL version 420,2013-09-24 01:44:00,
2013-09-23 21:49:00,61.2,49.2,27.94,NE,38,0.0,0.0,65,-99.99,,,-99.99,WSDL version 420,2013-09-24 01:49:00,
2013-09-23 21:54:00,61.1,49.2,27.94,NNE,23,0.0,0.0,65,0.00,,,0.00,WSDL version 420,2013-09-24 01:54:00,
2013-09-23 21:59:00,60.9,49.1,27.94,NNE,23,0.0,0.0,65,0.00,,,0.00,WSDL version 420,2013-09-24 01:59:00,
2013-09-23 22:04:00,60.9,49.0,27.94,NNE,23,0.0,0.0,65,-99.99,,,-99.99,WSDL version 420,2013-09-24 02:04:00,
2013-09-23 22:09:00,60.8,49.0,27.94,NNE,23,0.0,0.0,65,-99.99,,,-99.99,WSDL version 420,2013-09-24 02:09:00,
2013-09-23 22:14:00,60.6,49.2,27.94,NNE,23,0.0,0.0,66,-99.99,,,-99.99,WSDL version 420,2013-09-24 02:14:00,
2013-09-23 22:19:00,60.3,48.7,27.94,NNE,23,0.0,0.0,66,-99.99,,,-99.99,WSDL version 420,2013-09-24 02:19:00,
2013-09-23 22:24:00,60.3,48.9,27.94,NNE,23,0.0,0.0,66,-99.99,,,-99.99,WSDL version 420,2013-09-24 02:24:00,
2013-09-23 22:29:00,60.0,48.6,27.94,NNE,23,0.0,0.0,66,0.00,,,0.00,WSDL version 420,2013-09-24 02:29:00,
2013-09-23 22:34:00,60.0,48.6,27.94,NNE,23,0.0,0.0,66,0.00,,,0.00,WSDL version 420,2013-09-24 02:34:00,
2013-09-23 22:39:00,59.7,48.0,27.94,NNE,23,0.0,0.0,65,-99.99,,,-99.99,WSDL version 420,2013-09-24 02:39:00,
2013-09-23 22:44:00,59.5,48.1,27.94,NNE,23,0.0,0.0,66,-99.99,,,-99.99,WSDL version 420,2013-09-24 02:44:00,
2013-09-23 22:49:00,59.5,48.2,27.94,NNE,23,0.0,0.0,66,0.00,,,0.00,WSDL version 420,2013-09-24 02:49:00,
2013-09-23 22:54:00,59.5,48.1,27.94,NNE,23,0.0,0.0,66,0.00,,,0.00,WSDL version 420,2013-09-24 02:54:00,
2013-09-23 22:59:00,59.4,48.5,27.94,NNE,23,0.0,0.0,67,0.00,,,0.00,WSDL version 420,2013-09-24 02:59:00,
2013-09-23 23:04:00,59.2,48.2,27.96,NNE,23,0.0,0.0,67,0.00,,,0.00,WSDL version 420,2013-09-24 03:04:00,
2013-09-23 23:09:00,59.0,47.9,27.96,NNE,23,0.0,0.0,67,0.00,,,0.00,WSDL version 420,2013-09-24 03:09:00,
2013-09-23 23:14:00,58.8,47.8,27.96,NNE,23,0.0,0.0,67,-99.99,,,-99.99,WSDL version 420,2013-09-24 03:14:00,
2013-09-23 23:19:00,58.5,47.6,27.96,NNE,23,0.0,0.0,67,0.00,,,0.00,WSDL version 420,2013-09-24 03:19:00,
2013-09-23 23:24:00,58.4,47.5,27.96,NNE,23,0.0,0.0,67,0.00,,,0.00,WSDL version 420,2013-09-24 03:24:00,
2013-09-23 23:29:00,58.4,47.8,27.96,NNE,23,0.0,0.0,68,0.00,,,0.00,WSDL version 420,2013-09-24 03:29:00,
2013-09-23 23:34:00,58.2,47.5,27.96,NNE,23,0.0,0.0,67,-99.99,,,-99.99,WSDL version 420,2013-09-24 03:34:00,
2013-09-23 23:39:00,58.0,47.2,27.96,NNE,23,0.0,0.0,67,0.00,,,0.00,WSDL version 420,2013-09-24 03:39:00,
2013-09-23 23:44:00,58.0,47.1,27.96,NNE,23,0.0,0.0,67,0.00,,,0.00,WSDL version 420,2013-09-24 03:44:00,
2013-09-23 23:49:00,58.0,47.2,27.96,NNE,23,0.0,0.0,67,0.00,,,0.00,WSDL version 420,2013-09-24 03:49:00,
2013-09-23 23:54:00,58.1,47.2,27.96,NNE,23,0.0,0.0,67,0.00,,,0.00,WSDL version 420,2013-09-24 03:54:00,
2013-09-23 23:59:00,58.0,47.1,27.96,NNE,23,0.0,0.0,67,0.00,,,0.00,WSDL version 420,2013-09-24 03:59:00,